createdAt,value
2022-10-06T00:01:13.702Z,1.35
2022-10-06T00:03:43.625Z,1.30
2022-10-06T00:06:13.068Z,1.40
2022-10-06T00:08:42.417Z,1.38
2022-10-06T00:11:11.331Z,1.33
2022-10-06T00:13:40.081Z,1.20
2022-10-06T00:16:11.180Z,1.50
2022-10-06T00:18:39.771Z,1.30
2022-10-06T00:21:09.581Z,1.45
2022-10-06T00:23:38.319Z,1.20
2022-10-06T00:26:06.797Z,1.40
2022-10-06T00:28:35.255Z,1.20
2022-10-06T00:31:03.969Z,1.50
2022-10-06T00:33:32.601Z,1.27
2022-10-06T00:36:01.327Z,1.50
2022-10-06T00:38:31.501Z,1.30
2022-10-06T00:41:00.244Z,1.20
2022-10-06T00:43:43.182Z,1.52
2022-10-06T00:46:13.712Z,1.38
2022-10-06T00:48:42.701Z,1.20
2022-10-06T00:51:11.140Z,1.15
2022-10-06T00:53:40.941Z,1.30
2022-10-06T00:56:09.375Z,1.17
2022-10-06T00:58:37.788Z,1.27
2022-10-06T01:01:06.460Z,1.30
2022-10-06T01:03:37.100Z,1.30
2022-10-06T01:06:05.892Z,1.67
2022-10-06T01:08:34.685Z,1.45
2022-10-06T01:11:04.499Z,1.67
2022-10-06T01:13:33.217Z,1.55
2022-10-06T01:16:05.115Z,1.40
2022-10-06T01:18:34.210Z,1.70
2022-10-06T01:21:05.390Z,1.63
2022-10-06T01:23:35.925Z,1.52
2022-10-06T01:26:06.701Z,1.70
2022-10-06T01:28:35.234Z,1.20
2022-10-06T01:31:04.535Z,1.65
2022-10-06T01:33:33.084Z,1.58
2022-10-06T01:36:01.513Z,1.75
2022-10-06T01:38:30.175Z,1.80
2022-10-06T01:41:00.240Z,1.63
2022-10-06T01:43:28.644Z,1.60
2022-10-06T01:45:57.426Z,1.40
2022-10-06T01:48:26.921Z,1.55
2022-10-06T01:50:55.774Z,1.70
2022-10-06T01:53:24.463Z,1.70
2022-10-06T01:55:52.918Z,1.50
2022-10-06T01:58:22.670Z,1.98
2022-10-06T02:00:51.972Z,1.70
2022-10-06T02:03:20.408Z,1.70
2022-10-06T02:05:48.813Z,1.60
2022-10-06T02:08:17.272Z,1.98
2022-10-06T02:10:45.699Z,1.90
2022-10-06T02:13:14.469Z,2.35
2022-10-06T02:15:44.266Z,1.55
2022-10-06T02:18:12.680Z,1.88
2022-10-06T02:20:41.452Z,1.77
2022-10-06T02:23:10.166Z,1.80
2022-10-06T02:25:38.574Z,2.00
2022-10-06T02:28:06.999Z,2.10
2022-10-06T02:30:35.437Z,1.58
2022-10-06T02:33:05.250Z,2.05
2022-10-06T02:35:33.649Z,2.33
2022-10-06T02:38:02.052Z,2.15
2022-10-06T02:40:31.104Z,2.08
2022-10-06T02:43:00.291Z,2.28
2022-10-06T02:45:28.771Z,2.20
2022-10-06T02:47:57.190Z,2.00
2022-10-06T02:50:26.958Z,1.90
2022-10-06T02:52:55.354Z,2.35
2022-10-06T02:55:23.769Z,2.45
2022-10-06T02:57:52.173Z,1.95
2022-10-06T03:00:21.392Z,2.03
2022-10-06T03:02:49.854Z,2.08
2022-10-06T03:05:18.434Z,2.10
2022-10-06T03:07:48.204Z,2.42
2022-10-06T03:10:16.615Z,2.00
2022-10-06T03:12:45.070Z,2.38
2022-10-06T03:15:13.569Z,2.10
2022-10-06T03:17:42.011Z,2.33
2022-10-06T03:20:10.513Z,2.17
2022-10-06T03:22:38.908Z,2.08
2022-10-06T03:25:09.758Z,2.20
2022-10-06T03:27:38.143Z,2.05
2022-10-06T03:30:07.061Z,2.20
2022-10-06T03:32:35.908Z,2.55
2022-10-06T03:35:04.333Z,2.17
2022-10-06T03:37:32.894Z,2.28
2022-10-06T03:40:01.316Z,2.40
2022-10-06T03:42:32.249Z,2.58
2022-10-06T03:45:00.651Z,2.95
2022-10-06T03:47:31.822Z,2.58
2022-10-06T03:50:00.211Z,2.40
2022-10-06T03:52:28.733Z,2.90
2022-10-06T03:54:57.112Z,3.05
2022-10-06T03:57:25.520Z,2.90
2022-10-06T03:59:59.232Z,3.17
2022-10-06T04:02:27.715Z,2.70
2022-10-06T04:04:56.419Z,2.92
2022-10-06T04:07:24.844Z,3.08
2022-10-06T04:09:53.257Z,3.00
2022-10-06T04:12:21.658Z,3.10
2022-10-06T04:14:50.069Z,3.53
2022-10-06T04:17:19.835Z,3.10
2022-10-06T04:19:48.228Z,3.20
2022-10-06T04:22:16.634Z,3.00
2022-10-06T04:24:45.052Z,3.72
2022-10-06T04:27:28.564Z,3.15
2022-10-06T04:29:57.928Z,3.00
2022-10-06T04:32:29.416Z,2.92
2022-10-06T04:34:57.843Z,3.00
2022-10-06T04:37:28.354Z,2.00
2022-10-06T04:39:56.730Z,1.63
2022-10-06T04:42:25.136Z,1.60
2022-10-06T04:44:53.557Z,1.20
2022-10-06T04:47:21.984Z,1.35
2022-10-06T04:49:51.756Z,1.30
2022-10-06T04:52:20.233Z,1.20
2022-10-06T04:54:48.615Z,1.20
2022-10-06T04:57:17.001Z,1.10
2022-10-06T05:00:07.866Z,0.93
2022-10-06T05:02:38.769Z,1.15
2022-10-06T05:05:09.096Z,0.80
2022-10-06T05:07:37.550Z,0.80
2022-10-06T05:10:06.281Z,0.80
2022-10-06T05:12:34.681Z,0.93
2022-10-06T05:15:03.438Z,0.82
2022-10-06T05:17:31.851Z,0.70
2022-10-06T05:20:00.242Z,0.90
2022-10-06T05:22:29.998Z,0.88
2022-10-06T05:24:58.433Z,1.00
2022-10-06T05:27:26.822Z,0.90
2022-10-06T05:29:55.205Z,0.90
2022-10-06T05:32:23.654Z,0.90
2022-10-06T05:34:52.056Z,0.80
2022-10-06T05:37:20.464Z,0.77
2022-10-06T05:39:50.229Z,0.90
2022-10-06T05:42:18.757Z,0.80
2022-10-06T05:44:47.171Z,0.90
2022-10-06T05:47:15.617Z,0.90
2022-10-06T05:49:44.083Z,0.90
2022-10-06T05:52:12.469Z,0.95
2022-10-06T05:54:40.878Z,0.90
2022-10-06T05:57:10.638Z,0.73
2022-10-06T05:59:39.025Z,0.75
2022-10-06T06:02:07.477Z,0.73
2022-10-06T06:04:35.911Z,0.90
2022-10-06T06:07:04.309Z,0.70
2022-10-06T06:09:32.697Z,0.90
2022-10-06T06:12:01.115Z,0.77
2022-10-06T06:14:44.779Z,0.52
2022-10-06T06:17:13.161Z,0.93
2022-10-06T06:19:41.533Z,1.00
2022-10-06T06:22:09.961Z,0.93
2022-10-06T06:24:38.341Z,0.80
2022-10-06T06:27:06.766Z,0.77
2022-10-06T06:29:36.669Z,0.68
2022-10-06T06:32:05.109Z,0.68
2022-10-06T06:34:33.513Z,1.05
2022-10-06T06:37:07.530Z,0.77
2022-10-06T06:39:37.909Z,0.77
2022-10-06T06:42:08.547Z,0.90
2022-10-06T06:44:38.717Z,0.80
2022-10-06T06:47:07.164Z,0.93
2022-10-06T06:49:35.611Z,0.85
2022-10-06T06:52:05.472Z,1.38
2022-10-06T06:54:33.867Z,0.80
2022-10-06T06:57:02.257Z,0.73
2022-10-06T06:59:33.029Z,0.90
2022-10-06T07:02:03.409Z,0.80
2022-10-06T07:04:32.943Z,0.80
2022-10-06T07:07:01.382Z,0.95
2022-10-06T07:09:29.788Z,0.70
2022-10-06T07:11:58.196Z,0.88
2022-10-06T07:14:26.637Z,0.80
2022-10-06T07:17:12.688Z,1.48
2022-10-06T07:19:59.956Z,0.75
2022-10-06T07:22:58.895Z,0.90
2022-10-06T07:25:28.283Z,1.20
2022-10-06T07:27:56.743Z,1.17
2022-10-06T07:30:26.403Z,0.90
2022-10-06T07:32:55.084Z,1.20
2022-10-06T07:35:25.694Z,0.90
2022-10-06T07:37:54.324Z,0.90
2022-10-06T07:40:23.079Z,1.00
2022-10-06T07:42:52.572Z,1.00
2022-10-06T07:45:41.386Z,0.85
2022-10-06T07:48:11.866Z,1.13
2022-10-06T07:50:41.838Z,1.13
2022-10-06T07:53:10.287Z,1.00
2022-10-06T07:55:40.114Z,1.10
2022-10-06T07:58:12.759Z,1.00
2022-10-06T08:00:41.210Z,1.00
2022-10-06T08:03:14.407Z,0.90
2022-10-06T08:05:44.284Z,0.88
2022-10-06T08:08:14.289Z,1.30
2022-10-06T08:10:42.740Z,1.30
2022-10-06T08:13:11.426Z,0.90
2022-10-06T08:15:39.844Z,0.95
2022-10-06T08:18:21.288Z,1.15
2022-10-06T08:20:56.877Z,0.90
2022-10-06T08:23:25.285Z,1.10
2022-10-06T08:25:56.279Z,1.00
2022-10-06T08:28:25.485Z,1.25
2022-10-06T08:30:55.051Z,1.38
2022-10-06T08:33:23.570Z,1.00
2022-10-06T08:35:52.048Z,1.00
2022-10-06T08:38:21.859Z,0.80
2022-10-06T08:40:50.266Z,0.95
2022-10-06T08:43:24.939Z,0.75
2022-10-06T08:48:26.900Z,1.20
2022-10-06T08:51:01.212Z,1.75
2022-10-06T08:53:36.116Z,1.00
2022-10-06T08:56:07.958Z,1.10
2022-10-06T08:58:42.665Z,1.25
2022-10-06T09:01:15.948Z,1.10
2022-10-06T09:03:47.206Z,0.60
2022-10-06T09:06:18.665Z,1.02
2022-10-06T09:08:52.742Z,1.17
2022-10-06T09:11:38.873Z,1.10
2022-10-06T09:14:11.294Z,1.20
2022-10-06T09:16:41.277Z,1.40
2022-10-06T09:19:12.511Z,1.20
2022-10-06T09:21:42.929Z,1.13
2022-10-06T09:24:15.859Z,1.13
2022-10-06T09:26:46.013Z,1.13
2022-10-06T09:29:15.120Z,1.20
2022-10-06T09:31:44.294Z,0.95
2022-10-06T09:34:17.517Z,1.35
2022-10-06T09:37:01.578Z,0.93
2022-10-06T09:39:36.575Z,0.90
2022-10-06T09:42:06.917Z,1.02
2022-10-06T09:44:44.541Z,1.00
2022-10-06T09:47:32.468Z,1.08
2022-10-06T09:50:14.336Z,1.20
2022-10-06T09:52:42.806Z,1.17
2022-10-06T09:55:14.268Z,1.00
2022-10-06T09:57:49.997Z,1.42
2022-10-06T10:00:28.177Z,0.90
2022-10-06T10:03:00.104Z,1.10
2022-10-06T10:05:29.840Z,1.27
2022-10-06T10:08:06.278Z,1.45
2022-10-06T10:10:36.699Z,1.17
2022-10-06T10:13:06.440Z,1.08
2022-10-06T10:15:40.429Z,0.98
2022-10-06T10:18:14.254Z,1.10
2022-10-06T10:20:52.160Z,1.30
2022-10-06T10:23:27.194Z,1.23
2022-10-06T10:26:14.592Z,1.00
2022-10-06T10:28:51.823Z,1.08
2022-10-06T10:31:23.999Z,1.08
2022-10-06T10:34:11.924Z,1.30
2022-10-06T10:36:44.254Z,1.40
2022-10-06T10:39:15.564Z,1.00
2022-10-06T10:41:48.488Z,1.00
2022-10-06T10:44:22.472Z,1.00
2022-10-06T10:46:52.349Z,0.95
2022-10-06T10:49:21.745Z,0.95
2022-10-06T10:51:52.642Z,1.10
2022-10-06T10:54:25.061Z,0.90
2022-10-06T10:56:55.273Z,0.80
2022-10-06T10:59:25.580Z,1.23
2022-10-06T11:01:57.399Z,1.23
2022-10-06T11:04:25.975Z,1.10
2022-10-06T11:07:08.006Z,1.02
2022-10-06T11:09:41.488Z,0.95
2022-10-06T11:12:16.145Z,0.60
2022-10-06T11:14:51.433Z,0.98
2022-10-06T11:17:25.521Z,0.80
2022-10-06T11:19:58.357Z,0.60
2022-10-06T11:22:32.589Z,0.60
2022-10-06T11:25:05.550Z,0.63
2022-10-06T11:27:42.605Z,0.70
2022-10-06T11:30:16.124Z,0.70
2022-10-06T11:32:49.706Z,0.70
2022-10-06T11:35:19.445Z,0.70
2022-10-06T11:37:49.224Z,0.80
2022-10-06T11:40:28.099Z,0.60
2022-10-06T11:43:00.940Z,0.85
2022-10-06T11:45:32.309Z,0.98
2022-10-06T11:48:16.784Z,0.98
2022-10-06T11:50:49.121Z,1.00
2022-10-06T11:53:26.925Z,0.85
2022-10-06T11:56:10.167Z,0.63
2022-10-06T11:58:53.421Z,0.65
2022-10-06T12:01:38.128Z,0.82
2022-10-06T12:04:14.154Z,0.82
2022-10-06T12:07:10.885Z,0.70
2022-10-06T12:09:52.326Z,0.90
2022-10-06T12:12:40.102Z,0.82
2022-10-06T12:17:05.602Z,1.20
2022-10-06T12:18:11.140Z,0.88
2022-10-06T12:20:46.224Z,1.00
2022-10-06T12:23:20.025Z,0.90
2022-10-06T12:25:52.464Z,1.05
2022-10-06T12:28:27.989Z,1.00
2022-10-06T12:31:03.481Z,0.98
2022-10-06T12:33:38.003Z,0.90
2022-10-06T12:36:17.578Z,1.13
2022-10-06T12:39:02.317Z,0.93
2022-10-06T12:41:45.592Z,0.85
2022-10-06T12:44:22.829Z,1.00
2022-10-06T12:46:51.844Z,0.93
2022-10-06T12:49:32.054Z,1.20
2022-10-06T12:52:08.588Z,0.93
2022-10-06T12:54:39.043Z,1.30
2022-10-06T12:57:17.722Z,1.30
2022-10-06T12:59:46.384Z,1.63
2022-10-06T13:02:16.915Z,1.13
2022-10-06T13:04:49.178Z,1.50
2022-10-06T13:07:20.716Z,1.45
2022-10-06T13:09:50.092Z,1.02
2022-10-06T13:12:29.724Z,0.98
2022-10-06T13:15:17.781Z,1.05
2022-10-06T13:17:48.064Z,1.35
2022-10-06T13:20:34.235Z,1.10
2022-10-06T13:23:07.540Z,1.10
2022-10-06T13:25:43.582Z,1.13
2022-10-06T13:28:22.253Z,1.98
2022-10-06T13:30:57.461Z,1.42
2022-10-06T13:33:27.404Z,1.45
2022-10-06T13:35:56.168Z,1.33
2022-10-06T13:38:26.237Z,1.02
2022-10-06T13:41:18.865Z,1.10
2022-10-06T13:43:49.473Z,1.05
2022-10-06T13:46:19.282Z,1.17
2022-10-06T13:48:49.759Z,1.40
2022-10-06T13:51:22.935Z,1.63
2022-10-06T13:53:53.069Z,1.25
2022-10-06T13:58:57.741Z,1.15
2022-10-06T14:01:29.866Z,1.20
2022-10-06T14:04:14.288Z,1.38
2022-10-06T14:06:47.542Z,1.30
2022-10-06T14:09:21.971Z,1.08
2022-10-06T14:11:50.398Z,1.52
2022-10-06T14:14:19.465Z,1.10
2022-10-06T14:16:49.394Z,0.98
2022-10-06T14:19:35.123Z,1.20
2022-10-06T14:22:04.227Z,1.35
2022-10-06T14:24:37.346Z,1.27
2022-10-06T14:27:06.922Z,1.23
2022-10-06T14:29:38.003Z,1.20
2022-10-06T14:32:15.541Z,1.70
2022-10-06T14:34:43.999Z,1.50
2022-10-06T14:37:15.350Z,1.25
2022-10-06T14:39:45.807Z,1.60
2022-10-06T14:42:15.546Z,1.02
2022-10-06T14:44:44.866Z,1.20
2022-10-06T14:47:13.324Z,0.95
2022-10-06T14:49:41.770Z,1.40
2022-10-06T14:52:10.619Z,1.25
2022-10-06T14:54:39.230Z,1.13
2022-10-06T14:57:09.761Z,1.38
2022-10-06T14:59:38.279Z,1.23
2022-10-06T15:02:06.696Z,1.10
2022-10-06T15:04:35.128Z,1.27
2022-10-06T15:07:21.181Z,1.13
2022-10-06T15:09:49.585Z,1.40
2022-10-06T15:12:19.368Z,1.92
2022-10-06T15:14:47.800Z,0.90
2022-10-06T15:17:16.177Z,1.00
2022-10-06T15:19:44.615Z,0.93
2022-10-06T15:22:13.045Z,1.05
2022-10-06T15:24:43.173Z,1.33
2022-10-06T15:27:29.377Z,1.33
2022-10-06T15:29:59.210Z,1.65
2022-10-06T15:32:27.641Z,1.15
2022-10-06T15:34:56.086Z,1.17
2022-10-06T15:37:24.557Z,1.20
2022-10-06T15:39:53.238Z,1.27
2022-10-06T15:42:24.218Z,1.20
2022-10-06T15:44:52.873Z,0.80
2022-10-06T15:47:23.834Z,1.20
2022-10-06T15:49:52.253Z,1.33
2022-10-06T15:52:20.684Z,1.50
2022-10-06T15:54:49.941Z,1.70
2022-10-06T15:57:21.194Z,1.73
2022-10-06T15:59:50.171Z,1.40
2022-10-06T16:02:19.919Z,1.42
2022-10-06T16:05:16.314Z,1.40
2022-10-06T16:07:44.715Z,1.80
2022-10-06T16:10:13.603Z,1.95
2022-10-06T16:12:42.152Z,1.30
2022-10-06T16:15:10.933Z,2.00
2022-10-06T16:17:39.351Z,1.83
2022-10-06T16:20:11.594Z,1.92
2022-10-06T16:22:40.624Z,2.15
2022-10-06T16:25:09.645Z,1.90
2022-10-06T16:27:39.449Z,1.52
2022-10-06T16:30:08.681Z,2.13
2022-10-06T16:32:37.299Z,1.40
2022-10-06T16:35:06.093Z,1.70
2022-10-06T16:37:35.908Z,1.60
2022-10-06T16:40:04.371Z,1.70
2022-10-06T16:42:33.137Z,1.90
2022-10-06T16:45:01.689Z,1.40
2022-10-06T16:47:30.082Z,2.10
2022-10-06T16:49:58.527Z,1.33
2022-10-06T16:52:26.932Z,1.40
2022-10-06T16:54:57.483Z,1.20
2022-10-06T16:57:26.020Z,1.88
2022-10-06T16:59:54.423Z,2.35
2022-10-06T17:02:22.814Z,1.60
2022-10-06T17:04:51.390Z,2.13
2022-10-06T17:07:19.814Z,1.77
2022-10-06T17:10:15.358Z,1.83
2022-10-06T17:12:38.367Z,1.63
2022-10-06T17:15:07.396Z,1.52
2022-10-06T17:17:38.846Z,1.90
2022-10-06T17:20:08.198Z,2.08
2022-10-06T17:22:36.748Z,1.58
2022-10-06T17:25:05.478Z,1.92
2022-10-06T17:27:36.072Z,2.00
2022-10-06T17:30:10.508Z,1.73
2022-10-06T17:32:39.251Z,1.58
2022-10-06T17:35:08.417Z,1.65
2022-10-06T17:37:40.301Z,1.52
2022-10-06T17:40:09.391Z,2.10
2022-10-06T17:42:38.902Z,2.10
2022-10-06T17:45:09.490Z,2.03
2022-10-06T17:47:37.905Z,1.92
2022-10-06T17:50:06.675Z,1.77
2022-10-06T17:52:35.635Z,2.13
2022-10-06T17:55:04.254Z,2.00
2022-10-06T17:57:33.667Z,1.90
2022-10-06T18:00:02.207Z,1.83
2022-10-06T18:02:32.197Z,1.83
2022-10-06T18:05:00.641Z,1.90
2022-10-06T18:07:29.044Z,1.98
2022-10-06T18:10:14.844Z,1.80
2022-10-06T18:12:43.670Z,2.20
2022-10-06T18:15:12.488Z,1.77
2022-10-06T18:17:42.395Z,1.80
2022-10-06T18:20:11.436Z,2.40
2022-10-06T18:22:40.129Z,1.50
2022-10-06T18:25:09.872Z,1.60
2022-10-06T18:27:38.922Z,2.25
2022-10-06T18:30:08.205Z,2.03
2022-10-06T18:38:14.800Z,1.92
2022-10-06T18:40:43.202Z,2.40
2022-10-06T18:43:11.641Z,2.17
2022-10-06T18:45:57.604Z,2.10
2022-10-06T18:48:43.504Z,1.67
2022-10-06T18:51:13.307Z,1.70
2022-10-06T18:53:42.942Z,2.45
2022-10-06T18:56:13.181Z,2.10
2022-10-06T18:58:42.067Z,1.70
2022-10-06T19:01:10.725Z,1.83
2022-10-06T19:03:39.319Z,1.73
2022-10-06T19:06:08.214Z,2.15
2022-10-06T19:08:38.010Z,2.10
2022-10-06T19:11:24.026Z,1.50
2022-10-06T19:13:53.452Z,2.25
2022-10-06T19:16:22.231Z,2.03
2022-10-06T19:18:50.808Z,1.52
2022-10-06T19:21:19.251Z,2.00
2022-10-06T19:23:50.313Z,2.88
2022-10-06T19:26:20.355Z,2.08
2022-10-06T19:28:50.753Z,2.55
2022-10-06T19:31:20.209Z,2.17
2022-10-06T19:33:49.153Z,2.55
2022-10-06T19:36:19.287Z,2.30
2022-10-06T19:38:49.052Z,2.30
2022-10-06T19:41:31.350Z,2.15
2022-10-06T19:43:59.977Z,2.00
2022-10-06T19:46:28.422Z,2.42
2022-10-06T19:48:58.824Z,2.13
2022-10-06T19:51:27.271Z,2.08
2022-10-06T19:53:57.048Z,3.00
2022-10-06T19:56:29.968Z,2.10
2022-10-06T19:58:59.382Z,2.22
2022-10-06T20:01:28.635Z,2.15
2022-10-06T20:03:57.524Z,2.60
2022-10-06T20:06:26.571Z,2.05
2022-10-06T20:08:55.603Z,1.92
2022-10-06T20:11:25.565Z,2.05
2022-10-06T20:13:53.973Z,2.22
2022-10-06T20:16:22.499Z,2.33
2022-10-06T20:18:51.293Z,2.28
2022-10-06T20:21:21.077Z,2.30
2022-10-06T20:23:50.164Z,2.17
2022-10-06T20:26:19.330Z,2.55
2022-10-06T20:28:49.720Z,3.13
2022-10-06T20:31:19.434Z,2.47
2022-10-06T20:33:49.392Z,2.85
2022-10-06T20:36:18.225Z,2.95
2022-10-06T20:39:04.629Z,2.63
2022-10-06T20:41:33.639Z,2.05
2022-10-06T20:44:04.053Z,2.53
2022-10-06T20:46:34.229Z,2.85
2022-10-06T20:49:03.674Z,2.63
2022-10-06T20:51:32.531Z,2.55
2022-10-06T20:54:01.669Z,2.95
2022-10-06T20:56:30.067Z,3.03
2022-10-06T20:58:58.636Z,2.75
2022-10-06T21:01:28.529Z,2.67
2022-10-06T21:03:56.970Z,2.97
2022-10-06T21:06:25.622Z,3.47
2022-10-06T21:08:55.060Z,2.75
2022-10-06T21:11:24.277Z,3.13
2022-10-06T21:13:54.154Z,2.92
2022-10-06T21:16:23.023Z,3.10
2022-10-06T21:18:53.259Z,2.90
2022-10-06T21:21:21.799Z,3.88
2022-10-06T21:23:50.779Z,2.90
2022-10-06T21:26:20.191Z,2.88
2022-10-06T21:28:48.612Z,3.00
2022-10-06T21:31:19.108Z,2.65
2022-10-06T21:33:50.311Z,2.35
2022-10-06T21:36:20.843Z,3.08
2022-10-06T21:38:49.854Z,3.90
2022-10-06T21:41:31.994Z,3.10
2022-10-06T21:44:01.219Z,3.50
2022-10-06T21:46:30.563Z,3.60
2022-10-06T21:48:59.821Z,2.65
2022-10-06T21:51:30.079Z,3.15
2022-10-06T21:53:58.771Z,4.05
2022-10-06T21:56:27.879Z,3.03
2022-10-06T21:58:57.235Z,2.88
2022-10-06T22:01:26.386Z,2.67
2022-10-06T22:03:55.246Z,3.45
2022-10-06T22:06:23.687Z,3.08
2022-10-06T22:08:53.495Z,2.60
2022-10-06T22:11:22.606Z,3.00
2022-10-06T22:13:51.694Z,2.20
2022-10-06T22:16:21.165Z,3.70
2022-10-06T22:18:49.839Z,2.60
2022-10-06T22:21:19.028Z,2.80
2022-10-06T22:23:48.360Z,2.58
2022-10-06T22:26:18.611Z,2.83
2022-10-06T22:28:47.747Z,3.15
2022-10-06T22:31:16.864Z,2.80
2022-10-06T22:33:45.855Z,3.08
2022-10-06T22:36:15.144Z,3.38
2022-10-06T22:38:43.584Z,3.85
2022-10-06T22:41:12.543Z,2.30
2022-10-06T22:43:42.718Z,2.85
2022-10-06T22:46:11.741Z,3.67
2022-10-06T22:48:40.260Z,2.97
2022-10-06T22:51:08.698Z,3.17
2022-10-06T22:53:37.248Z,4.07
2022-10-06T22:56:06.076Z,2.63
2022-10-06T22:58:34.454Z,3.30
2022-10-06T23:01:11.477Z,3.33
2022-10-06T23:03:40.030Z,3.28
2022-10-06T23:06:09.154Z,3.78
2022-10-06T23:08:38.944Z,3.30
2022-10-06T23:11:08.260Z,3.38
2022-10-06T23:13:36.719Z,2.90
2022-10-06T23:16:07.737Z,3.13
2022-10-06T23:18:38.908Z,2.67
2022-10-06T23:21:07.700Z,4.05
2022-10-06T23:23:36.140Z,3.25
2022-10-06T23:26:05.374Z,2.60
2022-10-06T23:28:33.918Z,3.30
2022-10-06T23:31:02.585Z,3.03
2022-10-06T23:33:31.298Z,3.40
2022-10-06T23:36:01.631Z,3.25
2022-10-06T23:38:30.098Z,2.65
2022-10-06T23:40:58.754Z,2.72
2022-10-06T23:43:27.133Z,3.30
2022-10-06T23:45:55.553Z,3.03
2022-10-06T23:48:24.417Z,3.42
2022-10-06T23:51:03.887Z,3.05
2022-10-06T23:53:32.834Z,2.97
2022-10-06T23:56:01.326Z,3.65
2022-10-06T23:58:29.832Z,2.83
